createdAt,value
2018-03-22T00:00:53.679Z,5.10
2018-03-22T00:03:21.319Z,5.27
2018-03-22T00:05:48.877Z,9.27
2018-03-22T00:08:16.606Z,8.93
2018-03-22T00:10:44.165Z,2.87
2018-03-22T00:13:11.736Z,3.47
2018-03-22T00:15:40.055Z,7.50
2018-03-22T00:18:07.607Z,3.77
2018-03-22T00:20:35.194Z,12.50
2018-03-22T00:23:02.761Z,7.17
2018-03-22T00:25:31.127Z,2.83
2018-03-22T00:27:58.921Z,4.60
2018-03-22T00:30:27.397Z,10.10
2018-03-22T00:32:55.697Z,4.33
2018-03-22T00:35:23.262Z,2.13
2018-03-22T00:37:50.788Z,5.23
2018-03-22T00:40:19.136Z,3.03
2018-03-22T00:42:46.692Z,7.90
2018-03-22T00:45:14.252Z,3.27
2018-03-22T00:47:41.785Z,7.70
2018-03-22T00:50:09.342Z,3.47
2018-03-22T00:52:36.877Z,4.30
2018-03-22T00:55:04.430Z,3.13
2018-03-22T00:57:31.976Z,4.53
2018-03-22T00:59:59.518Z,4.57
2018-03-22T01:02:27.092Z,7.77
2018-03-22T01:04:54.634Z,2.67
2018-03-22T01:07:22.485Z,2.70
2018-03-22T01:09:50.801Z,2.03
2018-03-22T01:12:19.113Z,6.50
2018-03-22T01:14:46.741Z,3.23
2018-03-22T01:17:15.072Z,4.20
2018-03-22T01:19:42.816Z,4.87
2018-03-22T01:22:10.549Z,3.07
2018-03-22T01:24:38.855Z,5.33
2018-03-22T01:27:06.430Z,2.40
2018-03-22T01:29:33.969Z,5.50
2018-03-22T01:32:01.540Z,2.50
2018-03-22T01:34:29.085Z,3.33
2018-03-22T01:36:56.662Z,2.77
2018-03-22T01:39:24.207Z,3.43
2018-03-22T01:41:51.763Z,3.40
2018-03-22T01:44:19.296Z,7.97
2018-03-22T01:46:47.626Z,3.73
2018-03-22T01:49:15.157Z,4.70
2018-03-22T01:51:42.725Z,5.07
2018-03-22T01:54:10.252Z,2.87
2018-03-22T01:56:37.788Z,5.73
2018-03-22T01:59:05.489Z,3.80
2018-03-22T02:01:33.130Z,4.10
2018-03-22T02:04:01.460Z,4.57
2018-03-22T02:06:28.986Z,4.10
2018-03-22T02:08:56.550Z,2.83
2018-03-22T02:11:24.086Z,4.83
2018-03-22T02:13:51.649Z,4.30
2018-03-22T02:16:19.193Z,1.73
2018-03-22T02:18:46.781Z,5.90
2018-03-22T02:21:14.326Z,6.40
2018-03-22T02:23:41.876Z,4.23
2018-03-22T02:26:10.177Z,3.20
2018-03-22T02:28:37.752Z,4.57
2018-03-22T02:31:05.317Z,4.40
2018-03-22T02:33:32.876Z,5.87
2018-03-22T02:36:00.417Z,8.83
2018-03-22T02:38:28.025Z,8.90
2018-03-22T02:40:55.563Z,5.40
2018-03-22T02:43:23.122Z,9.00
2018-03-22T02:45:50.915Z,2.97
2018-03-22T02:48:18.474Z,3.57
2018-03-22T02:50:46.098Z,2.50
2018-03-22T02:53:13.672Z,1.80
2018-03-22T02:55:41.223Z,3.40
2018-03-22T02:58:09.291Z,4.10
2018-03-22T03:00:36.841Z,4.60
2018-03-22T03:03:04.400Z,2.47
2018-03-22T03:05:31.942Z,9.33
2018-03-22T03:07:59.526Z,6.83
2018-03-22T03:10:27.275Z,6.10
2018-03-22T03:12:54.843Z,4.80
2018-03-22T03:15:22.349Z,2.40
2018-03-22T03:17:49.914Z,11.33
2018-03-22T03:20:17.460Z,6.20
2018-03-22T03:22:45.019Z,10.10
2018-03-22T03:25:12.569Z,7.17
2018-03-22T03:27:40.134Z,4.70
2018-03-22T03:30:08.884Z,4.00
2018-03-22T03:32:36.435Z,5.83
2018-03-22T03:35:04.001Z,4.50
2018-03-22T03:37:31.622Z,8.47
2018-03-22T03:39:59.173Z,7.07
2018-03-22T03:42:27.192Z,4.50
2018-03-22T03:44:54.722Z,8.57
2018-03-22T03:47:23.027Z,4.00
2018-03-22T03:49:50.567Z,7.17
2018-03-22T03:52:18.222Z,7.30
2018-03-22T03:54:45.768Z,5.60
2018-03-22T03:57:14.100Z,11.63
2018-03-22T03:59:41.814Z,6.87
2018-03-22T04:02:09.366Z,8.20
2018-03-22T04:04:37.662Z,5.60
2018-03-22T04:07:05.259Z,3.40
2018-03-22T04:09:33.042Z,7.13
2018-03-22T04:12:00.595Z,4.30
2018-03-22T04:14:28.138Z,5.27
2018-03-22T04:16:55.697Z,4.70
2018-03-22T04:19:24.216Z,4.87
2018-03-22T04:21:51.768Z,6.97
2018-03-22T04:24:19.336Z,6.53
2018-03-22T04:26:47.705Z,5.50
2018-03-22T04:29:15.213Z,6.17
2018-03-22T04:31:42.765Z,4.77
2018-03-22T04:34:10.307Z,4.50
2018-03-22T04:36:37.869Z,10.40
2018-03-22T04:39:05.418Z,6.03
2018-03-22T04:41:33.274Z,4.43
2018-03-22T04:44:01.586Z,7.23
2018-03-22T04:46:29.888Z,8.47
2018-03-22T04:48:57.440Z,3.63
2018-03-22T04:51:25.037Z,8.30
2018-03-22T04:53:52.569Z,5.77
2018-03-22T04:56:20.108Z,5.67
2018-03-22T04:58:47.674Z,8.47
2018-03-22T05:01:15.245Z,7.60
2018-03-22T05:03:42.780Z,4.73
2018-03-22T05:06:10.403Z,4.47
2018-03-22T05:08:37.966Z,5.93
2018-03-22T05:11:05.529Z,5.87
2018-03-22T05:13:33.240Z,5.70
2018-03-22T05:16:01.194Z,15.50
2018-03-22T05:18:28.868Z,9.00
2018-03-22T05:20:56.473Z,7.80
2018-03-22T05:23:24.028Z,6.43
2018-03-22T05:25:51.672Z,10.10
2018-03-22T05:28:19.282Z,6.50
2018-03-22T05:30:46.830Z,9.57
2018-03-22T05:33:15.323Z,6.30
2018-03-22T05:35:42.910Z,8.60
2018-03-22T05:38:10.449Z,7.97
2018-03-22T05:40:38.646Z,8.97
2018-03-22T05:43:06.219Z,6.47
2018-03-22T05:45:33.776Z,7.23
2018-03-22T05:48:01.315Z,7.63
2018-03-22T05:50:28.875Z,6.53
2018-03-22T05:52:56.406Z,6.40
2018-03-22T05:55:24.757Z,10.97
2018-03-22T05:57:52.296Z,6.07
2018-03-22T06:00:20.674Z,12.20
2018-03-22T06:02:48.213Z,9.67
2018-03-22T06:05:15.768Z,18.50
2018-03-22T06:07:43.573Z,9.77
2018-03-22T06:10:11.195Z,12.87
2018-03-22T06:12:38.753Z,18.70
2018-03-22T06:15:06.530Z,12.07
2018-03-22T06:17:34.061Z,19.53
2018-03-22T06:20:01.665Z,20.77
2018-03-22T06:22:29.209Z,20.40
2018-03-22T06:24:56.822Z,19.70
2018-03-22T06:27:25.199Z,15.40
2018-03-22T06:29:52.742Z,24.57
2018-03-22T06:32:20.309Z,18.03
2018-03-22T06:34:47.844Z,16.37
2018-03-22T06:37:15.678Z,16.00
2018-03-22T06:39:43.240Z,14.37
2018-03-22T06:42:10.797Z,20.17
2018-03-22T06:44:38.398Z,20.07
2018-03-22T06:47:05.944Z,15.87
2018-03-22T06:49:33.565Z,29.50
2018-03-22T06:52:01.135Z,15.00
2018-03-22T06:54:28.677Z,15.20
2018-03-22T06:56:56.285Z,14.00
2018-03-22T06:59:23.817Z,19.10
2018-03-22T07:01:51.371Z,19.20
2018-03-22T07:04:18.933Z,15.43
2018-03-22T07:06:46.525Z,26.07
2018-03-22T07:09:14.061Z,19.40
2018-03-22T07:11:41.781Z,19.63
2018-03-22T07:14:10.194Z,23.83
2018-03-22T07:16:37.782Z,18.30
2018-03-22T07:19:05.373Z,20.73
2018-03-22T07:21:33.678Z,18.07
2018-03-22T07:24:01.239Z,20.57
2018-03-22T07:26:28.830Z,16.73
2018-03-22T07:28:56.420Z,19.73
2018-03-22T07:31:23.963Z,25.23
2018-03-22T07:33:51.529Z,23.50
2018-03-22T07:36:19.114Z,22.67
2018-03-22T07:38:46.883Z,17.80
2018-03-22T07:41:15.200Z,11.87
2018-03-22T07:43:42.798Z,23.10
2018-03-22T07:46:10.356Z,22.90
2018-03-22T07:48:37.917Z,23.77
2018-03-22T07:51:05.453Z,19.17
2018-03-22T07:53:33.022Z,17.57
2018-03-22T07:56:00.576Z,26.03
2018-03-22T07:58:28.148Z,15.53
2018-03-22T08:00:55.688Z,21.50
2018-03-22T08:03:23.258Z,16.57
2018-03-22T08:05:50.867Z,20.07
2018-03-22T08:08:18.429Z,66.07
2018-03-22T08:10:45.990Z,21.53
2018-03-22T08:13:13.575Z,25.17
2018-03-22T08:15:41.155Z,17.33
2018-03-22T08:18:08.701Z,17.50
2018-03-22T08:20:36.287Z,15.33
2018-03-22T08:23:04.112Z,18.90
2018-03-22T08:25:32.023Z,24.80
2018-03-22T08:27:59.637Z,16.87
2018-03-22T08:30:27.217Z,21.40
2018-03-22T08:32:55.169Z,20.10
2018-03-22T08:35:22.731Z,25.63
2018-03-22T08:37:50.276Z,14.43
2018-03-22T08:40:17.853Z,22.63
2018-03-22T08:42:45.424Z,19.60
2018-03-22T08:45:13.004Z,27.70
2018-03-22T08:47:40.555Z,30.70
2018-03-22T08:50:08.130Z,31.97
2018-03-22T08:52:35.958Z,23.37
2018-03-22T08:55:03.517Z,33.10
2018-03-22T08:57:31.065Z,30.03
2018-03-22T08:59:58.651Z,25.60
2018-03-22T09:02:26.287Z,22.33
2018-03-22T09:04:53.825Z,17.33
2018-03-22T09:07:21.405Z,20.03
2018-03-22T09:09:49.132Z,19.73
2018-03-22T09:12:17.541Z,18.73
2018-03-22T09:14:45.110Z,19.53
2018-03-22T09:17:13.075Z,20.40
2018-03-22T09:19:40.613Z,22.03
2018-03-22T09:22:08.282Z,19.00
2018-03-22T09:24:35.846Z,21.53
2018-03-22T09:27:05.289Z,19.73
2018-03-22T09:29:32.986Z,24.03
2018-03-22T09:32:00.546Z,20.10
2018-03-22T09:34:28.860Z,18.07
2018-03-22T09:36:56.416Z,18.97
2018-03-22T09:39:23.977Z,19.00
2018-03-22T09:41:51.602Z,24.03
2018-03-22T09:44:19.134Z,27.30
2018-03-22T09:46:46.705Z,21.20
2018-03-22T09:49:14.252Z,18.77
2018-03-22T09:51:41.813Z,18.50
2018-03-22T09:54:09.392Z,15.17
2018-03-22T09:56:37.134Z,17.90
2018-03-22T09:59:04.669Z,21.93
2018-03-22T10:01:32.427Z,20.13
2018-03-22T10:04:00.001Z,18.57
2018-03-22T10:06:27.869Z,31.63
2018-03-22T10:08:55.725Z,19.37
2018-03-22T10:11:23.288Z,22.00
2018-03-22T10:13:50.841Z,20.10
2018-03-22T10:16:18.392Z,20.53
2018-03-22T10:18:45.980Z,17.80
2018-03-22T10:21:13.550Z,27.87
2018-03-22T10:23:41.138Z,26.23
2018-03-22T10:26:08.710Z,23.23
2018-03-22T10:28:36.257Z,22.53
2018-03-22T10:31:03.861Z,19.93
2018-03-22T10:33:31.402Z,23.57
2018-03-22T10:35:59.112Z,24.37
2018-03-22T10:38:26.643Z,37.17
2018-03-22T10:40:54.479Z,36.47
2018-03-22T10:43:22.026Z,36.27
2018-03-22T10:45:49.603Z,23.33
2018-03-22T10:48:17.175Z,30.10
2018-03-22T10:50:44.897Z,35.23
2018-03-22T10:53:12.461Z,22.13
2018-03-22T10:55:40.018Z,34.10
2018-03-22T10:58:08.336Z,35.93
2018-03-22T11:00:37.736Z,33.60
2018-03-22T11:03:10.933Z,36.73
2018-03-22T11:05:38.552Z,34.47
2018-03-22T11:08:06.566Z,38.03
2018-03-22T11:10:34.200Z,40.33
2018-03-22T11:13:01.814Z,37.03
2018-03-22T11:15:29.529Z,34.70
2018-03-22T11:17:57.087Z,28.90
2018-03-22T11:20:24.644Z,37.07
2018-03-22T11:22:52.219Z,40.73
2018-03-22T11:25:19.924Z,38.07
2018-03-22T11:27:47.622Z,42.30
2018-03-22T11:30:15.969Z,40.17
2018-03-22T11:32:43.601Z,28.90
2018-03-22T11:35:11.134Z,40.03
2018-03-22T11:37:38.701Z,39.40
2018-03-22T11:40:06.248Z,25.17
2018-03-22T11:42:33.828Z,34.60
2018-03-22T11:45:01.370Z,36.17
2018-03-22T11:47:28.930Z,31.93
2018-03-22T11:49:56.466Z,42.10
2018-03-22T11:52:24.028Z,33.80
2018-03-22T11:54:52.329Z,38.63
2018-03-22T11:57:19.897Z,41.73
2018-03-22T11:59:47.440Z,44.13
2018-03-22T12:02:15.220Z,36.07
2018-03-22T12:04:42.779Z,37.47
2018-03-22T12:07:10.542Z,34.30
2018-03-22T12:09:38.087Z,29.13
2018-03-22T12:12:05.646Z,34.10
2018-03-22T12:14:33.177Z,37.30
2018-03-22T12:17:00.751Z,33.60
2018-03-22T12:19:28.286Z,42.47
2018-03-22T12:21:55.849Z,32.20
2018-03-22T12:24:23.405Z,37.00
2018-03-22T12:26:50.971Z,34.40
2018-03-22T12:29:20.025Z,26.63
2018-03-22T12:31:47.636Z,31.70
2018-03-22T12:34:15.942Z,32.80
2018-03-22T12:36:43.514Z,33.27
2018-03-22T12:39:11.374Z,36.87
2018-03-22T12:41:38.938Z,32.40
2018-03-22T12:44:06.904Z,30.53
2018-03-22T12:46:34.540Z,32.20
2018-03-22T12:49:02.316Z,35.87
2018-03-22T12:51:29.888Z,29.97
2018-03-22T12:53:57.473Z,27.80
2018-03-22T12:56:24.999Z,34.73
2018-03-22T12:58:52.596Z,33.30
2018-03-22T13:01:20.133Z,35.17
2018-03-22T13:03:48.751Z,34.77
2018-03-22T13:06:16.344Z,30.63
2018-03-22T13:08:44.834Z,27.83
2018-03-22T13:11:12.437Z,19.00
2018-03-22T13:13:40.033Z,37.13
2018-03-22T13:16:07.586Z,35.20
2018-03-22T13:18:36.151Z,28.60
2018-03-22T13:21:03.824Z,34.20
2018-03-22T13:23:31.446Z,36.27
2018-03-22T13:25:59.070Z,32.83
2018-03-22T13:28:27.392Z,38.57
2018-03-22T13:30:54.972Z,31.43
2018-03-22T13:33:22.522Z,35.60
2018-03-22T13:35:50.380Z,31.90
2018-03-22T13:38:17.952Z,34.47
2018-03-22T13:40:45.581Z,37.07
2018-03-22T13:43:13.967Z,42.30
2018-03-22T13:45:41.579Z,36.50
2018-03-22T13:48:12.659Z,24.07
2018-03-22T13:50:40.194Z,34.00
2018-03-22T13:53:08.519Z,42.70
2018-03-22T13:55:36.125Z,37.47
2018-03-22T13:58:04.465Z,48.17
2018-03-22T14:00:32.283Z,44.10
2018-03-22T14:02:59.978Z,39.83
2018-03-22T14:05:27.509Z,43.00
2018-03-22T14:07:55.072Z,36.53
2018-03-22T14:10:22.630Z,36.40
2018-03-22T14:12:51.036Z,40.03
2018-03-22T14:15:18.585Z,39.67
2018-03-22T14:17:46.183Z,52.17
2018-03-22T14:20:13.743Z,35.17
2018-03-22T14:22:41.364Z,41.33
2018-03-22T14:25:08.923Z,44.07
2018-03-22T14:27:36.517Z,42.40
2018-03-22T14:30:04.104Z,39.43
2018-03-22T14:32:31.964Z,43.37
2018-03-22T14:34:59.726Z,41.07
2018-03-22T14:37:27.324Z,47.63
2018-03-22T14:39:54.880Z,48.90
2018-03-22T14:42:22.457Z,38.83
2018-03-22T14:44:50.010Z,36.57
2018-03-22T14:47:17.695Z,44.17
2018-03-22T14:49:45.277Z,40.50
2018-03-22T14:52:12.949Z,34.13
2018-03-22T14:54:41.291Z,35.30
2018-03-22T14:57:08.865Z,39.07
2018-03-22T14:59:36.567Z,37.30
2018-03-22T15:02:04.895Z,23.33
2018-03-22T15:04:32.477Z,39.07
2018-03-22T15:07:00.069Z,34.80
2018-03-22T15:09:27.625Z,34.60
2018-03-22T15:11:56.029Z,34.30
2018-03-22T15:14:23.614Z,37.20
2018-03-22T15:16:51.219Z,24.47
2018-03-22T15:19:18.782Z,36.90
2018-03-22T15:21:46.336Z,38.40
2018-03-22T15:24:14.666Z,34.10
2018-03-22T15:26:42.207Z,32.13
2018-03-22T15:29:09.777Z,37.20
2018-03-22T15:31:37.329Z,26.27
2018-03-22T15:34:04.911Z,41.13
2018-03-22T15:36:32.445Z,31.73
2018-03-22T15:39:00.022Z,35.80
2018-03-22T15:41:27.578Z,35.80
2018-03-22T15:43:55.172Z,39.93
2018-03-22T15:46:23.288Z,40.03
2018-03-22T15:48:50.883Z,37.57
2018-03-22T15:51:18.419Z,35.13
2018-03-22T15:53:46.097Z,37.83
2018-03-22T15:56:13.668Z,34.70
2018-03-22T15:58:41.399Z,32.70
2018-03-22T16:01:09.062Z,38.27
2018-03-22T16:03:36.654Z,29.33
2018-03-22T16:06:04.198Z,29.23
2018-03-22T16:08:31.913Z,32.43
2018-03-22T16:11:00.233Z,29.93
2018-03-22T16:13:27.805Z,32.87
2018-03-22T16:15:55.461Z,37.00
2018-03-22T16:18:23.042Z,33.73
2018-03-22T16:20:53.403Z,31.00
2018-03-22T16:23:20.965Z,35.50
2018-03-22T16:25:49.290Z,35.43
2018-03-22T16:28:16.864Z,30.57
2018-03-22T16:30:44.646Z,35.70
2018-03-22T16:33:12.237Z,32.23
2018-03-22T16:35:39.784Z,30.07
2018-03-22T16:38:07.356Z,34.37
2018-03-22T16:40:34.906Z,30.37
2018-03-22T16:43:02.483Z,27.93
2018-03-22T16:45:30.048Z,33.23
2018-03-22T16:47:57.712Z,27.00
2018-03-22T16:50:25.418Z,30.70
2018-03-22T16:52:52.977Z,29.00
2018-03-22T16:55:20.533Z,17.17
2018-03-22T16:57:48.106Z,34.00
2018-03-22T17:00:15.687Z,40.20
2018-03-22T17:02:43.301Z,31.83
2018-03-22T17:05:10.853Z,30.67
2018-03-22T17:07:38.469Z,30.10
2018-03-22T17:10:06.008Z,32.83
2018-03-22T17:12:33.628Z,28.83
2018-03-22T17:15:01.202Z,27.77
2018-03-22T17:17:28.778Z,36.30
2018-03-22T17:19:56.566Z,37.33
2018-03-22T17:22:25.179Z,33.67
2018-03-22T17:24:52.907Z,35.67
2018-03-22T17:27:21.245Z,33.53
2018-03-22T17:29:48.880Z,34.30
2018-03-22T17:32:17.131Z,30.93
2018-03-22T17:34:46.424Z,19.90
2018-03-22T17:37:14.777Z,29.60
2018-03-22T17:39:42.584Z,38.33
2018-03-22T17:42:10.370Z,34.63
2018-03-22T17:44:37.934Z,49.10
2018-03-22T17:47:05.523Z,39.33
2018-03-22T17:49:33.106Z,39.93
2018-03-22T17:52:00.671Z,32.30
2018-03-22T17:54:29.022Z,44.20
2018-03-22T17:56:56.581Z,37.23
2018-03-22T17:59:24.166Z,21.27
2018-03-22T18:01:51.765Z,41.33
2018-03-22T18:04:19.362Z,38.40
2018-03-22T18:06:46.907Z,36.67
2018-03-22T18:09:14.515Z,39.17
2018-03-22T18:11:42.827Z,44.90
2018-03-22T18:14:10.428Z,44.70
2018-03-22T18:16:37.977Z,45.73
2018-03-22T18:19:05.547Z,36.67
2018-03-22T18:21:33.131Z,37.43
2018-03-22T18:24:01.455Z,37.77
2018-03-22T18:26:29.016Z,38.80
2018-03-22T18:28:56.579Z,39.60
2018-03-22T18:31:24.128Z,28.80
2018-03-22T18:33:51.778Z,35.50
2018-03-22T18:36:19.329Z,43.60
2018-03-22T18:38:46.874Z,43.50
2018-03-22T18:41:15.399Z,43.37
2018-03-22T18:43:42.963Z,42.53
2018-03-22T18:46:10.527Z,39.60
2018-03-22T18:48:38.151Z,40.90
2018-03-22T18:51:05.782Z,45.47
2018-03-22T18:53:34.125Z,36.70
2018-03-22T18:56:01.664Z,43.57
2018-03-22T18:58:29.244Z,41.90
2018-03-22T19:00:56.843Z,41.10
2018-03-22T19:03:25.254Z,50.50
2018-03-22T19:05:52.819Z,41.07
2018-03-22T19:08:20.433Z,41.37
2018-03-22T19:10:48.752Z,42.83
2018-03-22T19:13:16.602Z,40.10
2018-03-22T19:15:44.153Z,43.20
2018-03-22T19:18:11.835Z,43.40
2018-03-22T19:20:39.703Z,39.37
2018-03-22T19:23:07.274Z,45.20
2018-03-22T19:25:34.835Z,38.57
2018-03-22T19:28:02.418Z,41.93
2018-03-22T19:30:31.445Z,44.70
2018-03-22T19:32:59.022Z,41.63
2018-03-22T19:35:26.574Z,45.03
2018-03-22T19:37:54.158Z,43.97
2018-03-22T19:40:21.717Z,39.27
2018-03-22T19:42:49.314Z,39.37
2018-03-22T19:45:17.680Z,38.37
2018-03-22T19:47:45.267Z,36.27
2018-03-22T19:50:13.596Z,37.37
2018-03-22T19:52:41.218Z,42.13
2018-03-22T19:55:09.529Z,40.60
2018-03-22T19:57:37.303Z,39.17
2018-03-22T20:00:04.870Z,34.87
2018-03-22T20:02:32.462Z,27.00
2018-03-22T20:05:00.026Z,40.57
2018-03-22T20:07:27.851Z,38.50
2018-03-22T20:09:55.392Z,44.30
2018-03-22T20:12:23.102Z,34.13
2018-03-22T20:14:50.660Z,33.77
2018-03-22T20:17:18.990Z,38.17
2018-03-22T20:19:46.572Z,39.97
2018-03-22T20:22:14.133Z,35.80
2018-03-22T20:24:41.684Z,40.67
2018-03-22T20:27:09.578Z,35.97
2018-03-22T20:29:37.403Z,39.10
2018-03-22T20:32:04.985Z,35.50
2018-03-22T20:34:32.566Z,39.37
2018-03-22T20:37:00.365Z,38.83
2018-03-22T20:39:28.752Z,34.30
2018-03-22T20:41:56.303Z,42.40
2018-03-22T20:44:23.909Z,39.83
2018-03-22T20:46:51.488Z,36.47
2018-03-22T20:49:19.033Z,39.20
2018-03-22T20:51:46.587Z,39.20
2018-03-22T20:54:14.188Z,42.00
2018-03-22T20:56:42.510Z,38.80
2018-03-22T20:59:10.161Z,38.50
2018-03-22T21:01:37.775Z,39.20
2018-03-22T21:04:05.367Z,39.27
2018-03-22T21:06:32.907Z,40.47
2018-03-22T21:09:01.241Z,28.17
2018-03-22T21:11:28.808Z,41.57
2018-03-22T21:13:56.380Z,43.17
2018-03-22T21:16:23.946Z,38.90
2018-03-22T21:18:51.558Z,25.00
2018-03-22T21:21:19.150Z,40.90
2018-03-22T21:23:46.888Z,36.27
2018-03-22T21:26:14.434Z,41.27
2018-03-22T21:28:42.013Z,37.70
2018-03-22T21:31:09.574Z,41.00
2018-03-22T21:33:37.180Z,39.07
2018-03-22T21:36:05.492Z,42.90
2018-03-22T21:38:33.100Z,44.10
2018-03-22T21:41:00.670Z,39.20
2018-03-22T21:43:28.953Z,38.70
2018-03-22T21:45:56.517Z,42.23
2018-03-22T21:48:24.871Z,36.93
2018-03-22T21:50:52.426Z,38.70
2018-03-22T21:53:20.001Z,28.50
2018-03-22T21:55:47.562Z,37.87
2018-03-22T21:58:15.138Z,36.40
2018-03-22T22:00:42.683Z,37.00
2018-03-22T22:03:10.248Z,43.77
2018-03-22T22:05:37.805Z,36.40
2018-03-22T22:08:05.362Z,33.90
2018-03-22T22:10:33.077Z,34.47
2018-03-22T22:13:00.717Z,41.50
2018-03-22T22:15:28.288Z,35.93
2018-03-22T22:17:55.850Z,39.13
2018-03-22T22:20:23.422Z,38.13
2018-03-22T22:22:51.013Z,40.30
2018-03-22T22:25:18.558Z,40.67
2018-03-22T22:27:46.100Z,41.80
2018-03-22T22:30:13.673Z,158.37
2018-03-22T22:32:41.267Z,46.37
2018-03-22T22:35:08.835Z,47.23
2018-03-22T22:37:36.741Z,36.70
2018-03-22T22:40:04.348Z,44.07
2018-03-22T22:42:31.890Z,40.87
2018-03-22T22:44:59.442Z,40.40
2018-03-22T22:47:27.005Z,41.60
2018-03-22T22:49:54.554Z,43.70
2018-03-22T22:52:22.113Z,30.13
2018-03-22T22:54:49.712Z,41.37
2018-03-22T22:57:18.018Z,38.63
2018-03-22T22:59:45.598Z,39.50
2018-03-22T23:02:13.151Z,46.17
2018-03-22T23:04:40.719Z,42.43
2018-03-22T23:07:08.682Z,37.20
2018-03-22T23:09:36.277Z,42.87
2018-03-22T23:12:03.836Z,43.20
2018-03-22T23:14:31.398Z,29.87
2018-03-22T23:16:59.947Z,40.40
2018-03-22T23:19:27.478Z,42.47
2018-03-22T23:21:55.049Z,36.10
2018-03-22T23:24:22.617Z,38.47
2018-03-22T23:26:50.284Z,31.03
2018-03-22T23:29:17.898Z,40.93
2018-03-22T23:31:46.235Z,40.10
2018-03-22T23:34:13.788Z,44.07
2018-03-22T23:36:41.499Z,34.07
2018-03-22T23:39:10.487Z,36.80
2018-03-22T23:41:38.197Z,39.43
2018-03-22T23:44:05.766Z,35.20
2018-03-22T23:46:33.524Z,43.20
2018-03-22T23:49:01.065Z,42.13
2018-03-22T23:51:28.637Z,44.40
2018-03-22T23:53:56.182Z,40.73
2018-03-22T23:56:23.721Z,40.97
2018-03-22T23:58:51.277Z,43.40
